< Typhoon 197208 1972 Season Typhoon 197210 >
Typhoon 197209 (TESS)
General InformationTrack Information on Google Maps || Disaster Info.ResourceGoogle EarthGE AnimationAtom FeedGeoJSON
Detalied Best Track (Time Zone = UTC)
Year Month Day Hour Lat. Long. Pressure (hPa) Wind (kt) Class Image Chart
1972 7 7 12 11.0 173.2 994 0 2 -- Chart
1972 7 7 18 12.1 171.7 994 0 2 -- Chart
1972 7 8 00 12.6 170.5 994 0 2 -- Chart
1972 7 8 06 13.1 169.7 994 0 2 -- Chart
1972 7 8 12 13.3 169.3 994 0 2 -- Chart
1972 7 8 18 13.4 168.9 990 0 9 -- Chart
1972 7 9 00 13.5 168.6 990 0 9 -- Chart
1972 7 9 06 13.6 168.3 990 0 9 -- Chart
1972 7 9 12 13.7 167.6 990 0 9 -- Chart
1972 7 9 18 13.7 166.7 990 0 9 -- Chart
1972 7 10 00 13.3 166.3 990 0 9 -- Chart
1972 7 10 06 12.8 166.3 990 0 9 -- Chart
1972 7 10 12 12.6 166.6 990 0 9 -- Chart
1972 7 10 18 12.7 167.0 990 0 9 -- Chart
1972 7 11 00 13.3 167.1 990 0 9 -- Chart
1972 7 11 06 13.4 166.7 990 0 9 -- Chart
1972 7 11 12 13.8 166.4 985 0 9 -- Chart
1972 7 11 18 14.0 165.9 985 0 9 -- Chart
1972 7 12 00 14.2 165.5 985 0 9 -- Chart
1972 7 12 06 14.3 164.9 985 0 9 -- Chart
1972 7 12 12 14.3 164.5 985 0 9 -- Chart
1972 7 12 18 14.1 163.8 980 0 9 -- Chart
1972 7 13 00 13.6 162.9 980 0 9 -- Chart
1972 7 13 06 13.2 162.3 975 0 9 -- Chart
1972 7 13 12 12.9 161.2 975 0 9 -- Chart
1972 7 13 18 12.4 160.9 970 0 9 -- Chart
1972 7 14 00 12.5 160.0 960 0 9 -- Chart
1972 7 14 06 12.6 159.2 950 0 9 -- Chart
1972 7 14 12 12.8 158.2 945 0 9 -- Chart
1972 7 14 18 13.1 157.3 945 0 9 -- Chart
1972 7 15 00 13.8 156.8 950 0 9 -- Chart
1972 7 15 06 14.8 155.8 940 0 9 -- Chart
1972 7 15 12 15.5 155.5 940 0 9 -- Chart
1972 7 15 18 16.5 154.8 940 0 9 -- Chart
1972 7 16 00 17.4 154.2 940 0 9 -- Chart
1972 7 16 06 18.4 153.6 940 0 9 -- Chart
1972 7 16 12 19.6 153.0 945 0 9 -- Chart
1972 7 16 18 20.5 151.8 950 0 9 -- Chart
1972 7 17 00 21.0 151.6 950 0 9 -- Chart
1972 7 17 06 21.6 151.4 950 0 9 -- Chart
1972 7 17 12 22.0 151.0 950 0 9 -- Chart
1972 7 17 18 22.4 150.7 950 0 9 -- Chart
1972 7 18 00 22.8 150.4 955 0 9 -- Chart
1972 7 18 06 23.3 150.0 955 0 9 -- Chart
1972 7 18 12 23.8 149.8 960 0 9 -- Chart
1972 7 18 18 24.3 149.6 965 0 9 -- Chart
1972 7 19 00 24.8 149.0 965 0 9 -- Chart
1972 7 19 06 25.5 148.7 960 0 9 -- Chart
1972 7 19 12 26.2 148.1 960 0 9 -- Chart
1972 7 19 18 26.7 147.7 960 0 9 -- Chart
1972 7 20 00 27.4 147.3 965 0 9 -- Chart
1972 7 20 06 28.0 146.9 965 0 9 -- Chart
1972 7 20 12 28.2 146.4 965 0 9 -- Chart
1972 7 20 18 28.4 145.5 965 0 9 -- Chart
1972 7 21 00 28.6 144.8 965 0 9 -- Chart
1972 7 21 06 28.9 144.2 965 0 9 -- Chart
1972 7 21 12 29.2 142.8 965 0 9 -- Chart
1972 7 21 18 29.2 140.8 965 0 9 -- Chart
1972 7 22 00 29.3 139.5 965 0 9 -- Chart
1972 7 22 06 29.7 138.3 970 0 9 -- Chart
1972 7 22 12 29.9 137.1 970 0 9 -- Chart
1972 7 22 18 30.3 136.0 970 0 9 -- Chart
1972 7 23 00 30.9 134.4 970 0 9 -- Chart
1972 7 23 06 31.8 132.8 970 0 9 -- Chart
1972 7 23 12 33.2 131.6 976 0 9 -- Chart
1972 7 23 18 34.7 130.5 980 0 9 -- Chart
1972 7 24 00 36.5 130.3 985 0 9 -- Chart
1972 7 24 06 38.2 129.8 988 0 2 -- Chart
1972 7 24 12 40.0 129.1 992 0 6 -- Chart
1972 7 24 18 41.0 129.0 996 0 6 -- Chart
1972 7 25 00 41.0 128.0 1000 0 6 -- Chart
1972 7 25 06 42.0 127.0 1000 0 6 -- Chart
Japan Meteorological Agency Best Track Data | Correction Date : 1989-06-01
< Typhoon 197208 1972 Season Typhoon 197210 >

Help